Terminal Aerodrome Forecast
Issued by NWS

Home | Current Version | Previous Version | Text Only | Print | Product List | Glossary On
Versions: 1 2 3 4 5 6 7 8 9 10 11 12 13 14 15
001
FTUS41 KBGM 091738
TAFITH
TAF
KITH 091738Z 0918/1018 14006KT P6SM BKN015 OVC050
     FM092100 VRB04KT P6SM OVC020
      TEMPO 0921/0924 2SM -SN OVC015
     FM100000 VRB03KT 1 1/2SM -SN BKN009 OVC012
     FM100400 VRB03KT P6SM BKN025 OVC050
     FM101200 23008KT 2SM -SN OVC015=

USA.gov is the U.S. government's official web portal to all federal, state and local government web resources and services.